FRS131 ZZZZ-EDDE
Flight info
| Callsign | FRS131 |
|---|---|
| Flight time | N/A |
| Altitude | |
| Route | |
| Aircraft | C208 |
Departure
| Time | N/A |
|---|---|
| Airport | ZZZZ |
Arrival
| Time | 2026-05-04 19:42 |
|---|---|
| Airport | Erfurt-Weimar Airport (EDDE) |
| Time | Latitude | Longitude | Altitude | Speed | Heading |
|---|---|---|---|---|---|
| 2026-05-04 19:31 | 50.91980 | 10.55122 | 3018 ft | 135 kts | 84° |
| 2026-05-04 19:31 | 50.91893 | 10.56622 | 3025 ft | 138 kts | 97° |
| 2026-05-04 19:31 | 50.91539 | 10.58039 | 3026 ft | 140 kts | 116° |
| 2026-05-04 19:31 | 50.91119 | 10.59441 | 3026 ft | 143 kts | 114° |
| 2026-05-04 19:32 | 50.90694 | 10.60870 | 3017 ft | 143 kts | 114° |
| 2026-05-04 19:32 | 50.90284 | 10.62288 | 3016 ft | 141 kts | 110° |
| 2026-05-04 19:32 | 50.89979 | 10.63742 | 3017 ft | 139 kts | 106° |
| 2026-05-04 19:32 | 50.89702 | 10.65199 | 3007 ft | 135 kts | 102° |
| 2026-05-04 19:33 | 50.89483 | 10.66621 | 3003 ft | 132 kts | 102° |
| 2026-05-04 19:33 | 50.89264 | 10.68014 | 3008 ft | 129 kts | 102° |
| 2026-05-04 19:33 | 50.89039 | 10.69413 | 3016 ft | 134 kts | 102° |
| 2026-05-04 19:33 | 50.88804 | 10.70879 | 2932 ft | 140 kts | 102° |
| 2026-05-04 19:34 | 50.88564 | 10.72389 | 2834 ft | 142 kts | 101° |
| 2026-05-04 19:34 | 50.88319 | 10.73910 | 2751 ft | 144 kts | 102° |
| 2026-05-04 19:34 | 50.88075 | 10.75452 | 2646 ft | 145 kts | 102° |
| 2026-05-04 19:34 | 50.87830 | 10.76996 | 2539 ft | 144 kts | 102° |
| 2026-05-04 19:35 | 50.87590 | 10.78459 | 2450 ft | 144 kts | 102° |
| 2026-05-04 19:35 | 50.87343 | 10.79991 | 2341 ft | 143 kts | 102° |
| 2026-05-04 19:35 | 50.87134 | 10.81519 | 2234 ft | 141 kts | 96° |
| 2026-05-04 19:35 | 50.87080 | 10.83035 | 2176 ft | 131 kts | 88° |
| 2026-05-04 19:36 | 50.87152 | 10.84419 | 2093 ft | 123 kts | 81° |
| 2026-05-04 19:36 | 50.87332 | 10.85736 | 1994 ft | 122 kts | 73° |
| 2026-05-04 19:36 | 50.87658 | 10.86963 | 1888 ft | 121 kts | 59° |
| 2026-05-04 19:36 | 50.88062 | 10.88134 | 1881 ft | 123 kts | 60° |
| 2026-05-04 19:37 | 50.88475 | 10.89327 | 1893 ft | 125 kts | 60° |
| 2026-05-04 19:37 | 50.88898 | 10.90562 | 1885 ft | 128 kts | 60° |
| 2026-05-04 19:37 | 50.89323 | 10.91787 | 1880 ft | 126 kts | 57° |
| 2026-05-04 19:37 | 50.89902 | 10.92807 | 1885 ft | 124 kts | 41° |
| 2026-05-04 19:38 | 50.90642 | 10.93480 | 1896 ft | 115 kts | 23° |
| 2026-05-04 19:38 | 50.91327 | 10.93842 | 1889 ft | 98 kts | 8° |
| 2026-05-04 19:38 | 50.91986 | 10.94068 | 1885 ft | 97 kts | 11° |
| 2026-05-04 19:38 | 50.92621 | 10.94437 | 1881 ft | 101 kts | 19° |
| 2026-05-04 19:39 | 50.93278 | 10.94832 | 1887 ft | 102 kts | 19° |
| 2026-05-04 19:39 | 50.93942 | 10.95240 | 1889 ft | 103 kts | 19° |
| 2026-05-04 19:39 | 50.94613 | 10.95654 | 1880 ft | 102 kts | 21° |
| 2026-05-04 19:39 | 50.95074 | 10.96502 | 1865 ft | 103 kts | 71° |
| 2026-05-04 19:40 | 50.95241 | 10.97595 | 1877 ft | 104 kts | 71° |
| 2026-05-04 19:40 | 50.95477 | 10.98671 | 1869 ft | 103 kts | 53° |
| 2026-05-04 19:40 | 50.96099 | 10.99004 | 1873 ft | 99 kts | 344° |
| 2026-05-04 19:40 | 50.96762 | 10.98986 | 1804 ft | 93 kts | 6° |
| 2026-05-04 19:41 | 50.97371 | 10.98780 | 1594 ft | 92 kts | 324° |
| 2026-05-04 19:41 | 50.97803 | 10.98047 | 1363 ft | 90 kts | 282° |
| 2026-05-04 19:41 | 50.97877 | 10.97074 | 1155 ft | 87 kts | 275° |
| 2026-05-04 19:41 | 50.97941 | 10.96230 | 1024 ft | 66 kts | 277° |
| 2026-05-04 19:42 | 50.97989 | 10.95625 | 1025 ft | 44 kts | 277° |
| 2026-05-04 19:42 | 50.97984 | 10.95391 | 1028 ft | 10 kts | 211° |
| 2026-05-04 19:42 | 50.97924 | 10.95370 | 1027 ft | 0 kts | 186° |
| 2026-05-04 19:43 | 50.97852 | 10.95357 | 1027 ft | 15 kts | 180° |
| 2026-05-04 19:43 | 50.97797 | 10.95450 | 1027 ft | 13 kts | 99° |
| 2026-05-04 19:43 | 50.97784 | 10.95607 | 1026 ft | 16 kts | 97° |
| 2026-05-04 19:43 | 50.97768 | 10.95795 | 1026 ft | 18 kts | 97° |
| 2026-05-04 19:44 | 50.97751 | 10.96006 | 1025 ft | 20 kts | 97° |
| 2026-05-04 19:44 | 50.97735 | 10.96216 | 1023 ft | 16 kts | 97° |
| 2026-05-04 19:44 | 50.97721 | 10.96344 | 1022 ft | 13 kts | 113° |
| 2026-05-04 19:44 | 50.97659 | 10.96462 | 1024 ft | 15 kts | 144° |
| 2026-05-04 19:45 | 50.97565 | 10.96458 | 1021 ft | 8 kts | 195° |
| 2026-05-04 19:45 | 50.97537 | 10.96409 | 1024 ft | 0 kts | 276° |